sensor_id;sensor_type;location;lat;lon;timestamp;pressure;altitude;pressure_sealevel;temperature;humidity
84483;BME280;74703;51.284;22.590;2024-02-28T00:02:42;99517.94;;;3.49;92.02
84483;BME280;74703;51.284;22.590;2024-02-28T00:07:43;99510.19;;;3.51;92.54
84483;BME280;74703;51.284;22.590;2024-02-28T00:12:44;99506.97;;;3.38;92.60
84483;BME280;74703;51.284;22.590;2024-02-28T00:17:45;99509.34;;;2.99;90.29
84483;BME280;74703;51.284;22.590;2024-02-28T00:22:45;99527.38;;;2.96;90.99
84483;BME280;74703;51.284;22.590;2024-02-28T00:27:46;99513.72;;;2.94;92.21
84483;BME280;74703;51.284;22.590;2024-02-28T00:32:47;99507.81;;;2.89;92.67
84483;BME280;74703;51.284;22.590;2024-02-28T00:37:47;99515.34;;;3.00;92.86
84483;BME280;74703;51.284;22.590;2024-02-28T00:42:48;99508.34;;;3.08;93.41
84483;BME280;74703;51.284;22.590;2024-02-28T00:47:48;99507.59;;;3.01;93.12
84483;BME280;74703;51.284;22.590;2024-02-28T00:52:49;99516.53;;;2.77;92.28
84483;BME280;74703;51.284;22.590;2024-02-28T00:57:52;99524.22;;;2.80;92.37
84483;BME280;74703;51.284;22.590;2024-02-28T01:02:53;99536.06;;;2.87;92.26
84483;BME280;74703;51.284;22.590;2024-02-28T01:07:54;99525.94;;;2.78;91.95
84483;BME280;74703;51.284;22.590;2024-02-28T01:12:54;99532.84;;;2.76;92.12
84483;BME280;74703;51.284;22.590;2024-02-28T01:17:55;99492.94;;;2.52;92.29
84483;BME280;74703;51.284;22.590;2024-02-28T01:22:55;99531.91;;;2.80;92.80
84483;BME280;74703;51.284;22.590;2024-02-28T01:27:56;99524.38;;;2.68;92.18
84483;BME280;74703;51.284;22.590;2024-02-28T01:33:00;99542.47;;;2.62;92.28
84483;BME280;74703;51.284;22.590;2024-02-28T01:38:00;99532.22;;;2.59;91.61
84483;BME280;74703;51.284;22.590;2024-02-28T01:43:07;99531.50;;;2.49;91.96
84483;BME280;74703;51.284;22.590;2024-02-28T01:48:09;99495.78;;;2.34;92.48
84483;BME280;74703;51.284;22.590;2024-02-28T01:53:11;99513.63;;;2.43;92.88
84483;BME280;74703;51.284;22.590;2024-02-28T01:58:13;99522.13;;;2.46;93.36
84483;BME280;74703;51.284;22.590;2024-02-28T02:03:14;99544.97;;;2.65;93.14
84483;BME280;74703;51.284;22.590;2024-02-28T02:08:15;99528.78;;;2.61;93.47
84483;BME280;74703;51.284;22.590;2024-02-28T02:13:15;99518.50;;;2.61;93.23
84483;BME280;74703;51.284;22.590;2024-02-28T02:18:16;99533.25;;;2.48;92.01
84483;BME280;74703;51.284;22.590;2024-02-28T02:23:17;99508.06;;;2.09;91.54
84483;BME280;74703;51.284;22.590;2024-02-28T02:28:17;99535.22;;;2.28;92.05
84483;BME280;74703;51.284;22.590;2024-02-28T02:33:18;99516.25;;;2.38;93.31
84483;BME280;74703;51.284;22.590;2024-02-28T02:38:18;99502.50;;;2.42;93.38
84483;BME280;74703;51.284;22.590;2024-02-28T02:43:19;99525.59;;;2.44;92.59
84483;BME280;74703;51.284;22.590;2024-02-28T02:48:20;99513.72;;;2.35;92.43
84483;BME280;74703;51.284;22.590;2024-02-28T02:53:20;99517.03;;;2.43;92.43
84483;BME280;74703;51.284;22.590;2024-02-28T02:58:21;99514.38;;;2.49;93.10
84483;BME280;74703;51.284;22.590;2024-02-28T03:03:22;99531.31;;;2.63;92.93
84483;BME280;74703;51.284;22.590;2024-02-28T03:08:22;99538.25;;;2.58;92.74
84483;BME280;74703;51.284;22.590;2024-02-28T03:13:23;99522.94;;;2.50;93.02
84483;BME280;74703;51.284;22.590;2024-02-28T03:18:23;99546.53;;;2.75;93.10
84483;BME280;74703;51.284;22.590;2024-02-28T03:23:24;99533.78;;;2.69;92.87
84483;BME280;74703;51.284;22.590;2024-02-28T03:28:24;99530.22;;;2.79;93.06
84483;BME280;74703;51.284;22.590;2024-02-28T03:33:25;99523.41;;;2.77;92.71
84483;BME280;74703;51.284;22.590;2024-02-28T03:38:25;99521.59;;;2.85;92.29
84483;BME280;74703;51.284;22.590;2024-02-28T03:43:26;99524.25;;;2.79;93.41
84483;BME280;74703;51.284;22.590;2024-02-28T03:48:27;99533.50;;;2.89;93.17
84483;BME280;74703;51.284;22.590;2024-02-28T03:53:27;99537.81;;;2.87;92.85
84483;BME280;74703;51.284;22.590;2024-02-28T03:58:28;99547.00;;;3.03;93.66
84483;BME280;74703;51.284;22.590;2024-02-28T04:03:29;99540.31;;;2.90;93.08
84483;BME280;74703;51.284;22.590;2024-02-28T04:08:29;99540.31;;;2.90;93.59
84483;BME280;74703;51.284;22.590;2024-02-28T04:13:30;99538.84;;;3.31;95.11
84483;BME280;74703;51.284;22.590;2024-02-28T04:18:30;99540.94;;;3.58;95.87
84483;BME280;74703;51.284;22.590;2024-02-28T04:23:31;99556.19;;;3.67;95.61
84483;BME280;74703;51.284;22.590;2024-02-28T04:28:31;99553.63;;;3.67;95.06
84483;BME280;74703;51.284;22.590;2024-02-28T04:33:32;99528.03;;;3.60;95.15
84483;BME280;74703;51.284;22.590;2024-02-28T04:38:32;99531.13;;;3.79;95.72
84483;BME280;74703;51.284;22.590;2024-02-28T04:43:33;99553.81;;;4.03;95.87
84483;BME280;74703;51.284;22.590;2024-02-28T04:48:34;99553.81;;;4.03;96.07
84483;BME280;74703;51.284;22.590;2024-02-28T04:53:34;99537.72;;;3.94;95.08
84483;BME280;74703;51.284;22.590;2024-02-28T04:58:38;99529.53;;;3.72;93.47
84483;BME280;74703;51.284;22.590;2024-02-28T05:03:46;99539.25;;;3.56;93.25
84483;BME280;74703;51.284;22.590;2024-02-28T05:08:49;99540.72;;;3.69;94.03
84483;BME280;74703;51.284;22.590;2024-02-28T05:13:51;99571.13;;;3.95;94.22
84483;BME280;74703;51.284;22.590;2024-02-28T05:18:52;99566.50;;;3.67;93.22
84483;BME280;74703;51.284;22.590;2024-02-28T05:23:52;99563.81;;;3.74;93.97
84483;BME280;74703;51.284;22.590;2024-02-28T05:28:53;99577.09;;;3.97;94.63
84483;BME280;74703;51.284;22.590;2024-02-28T05:33:55;99566.72;;;4.02;94.99
84483;BME280;74703;51.284;22.590;2024-02-28T05:39:00;99574.94;;;4.21;94.58
84483;BME280;74703;51.284;22.590;2024-02-28T05:44:01;99579.09;;;4.26;94.05
84483;BME280;74703;51.284;22.590;2024-02-28T05:49:03;99575.91;;;4.13;93.08
84483;BME280;74703;51.284;22.590;2024-02-28T05:54:04;99582.50;;;4.28;92.73
84483;BME280;74703;51.284;22.590;2024-02-28T05:59:07;99572.50;;;4.55;93.86
84483;BME280;74703;51.284;22.590;2024-02-28T06:04:10;99576.78;;;4.96;94.45
84483;BME280;74703;51.284;22.590;2024-02-28T06:09:11;99570.16;;;5.20;94.40
84483;BME280;74703;51.284;22.590;2024-02-28T06:14:11;99593.34;;;5.23;92.92
84483;BME280;74703;51.284;22.590;2024-02-28T06:19:13;99601.88;;;5.60;93.28
84483;BME280;74703;51.284;22.590;2024-02-28T06:24:14;99584.56;;;5.65;92.93
84483;BME280;74703;51.284;22.590;2024-02-28T06:29:14;99598.34;;;6.00;92.63
84483;BME280;74703;51.284;22.590;2024-02-28T06:34:16;99606.19;;;6.26;91.68
84483;BME280;74703;51.284;22.590;2024-02-28T06:39:16;99627.72;;;6.58;91.24
84483;BME280;74703;51.284;22.590;2024-02-28T06:44:20;99625.41;;;6.78;90.37
84483;BME280;74703;51.284;22.590;2024-02-28T06:49:20;99611.31;;;6.88;89.94
84483;BME280;74703;51.284;22.590;2024-02-28T06:54:21;99614.75;;;7.17;88.92
84483;BME280;74703;51.284;22.590;2024-02-28T06:59:22;99606.75;;;7.25;88.64
84483;BME280;74703;51.284;22.590;2024-02-28T07:04:22;99633.38;;;7.55;88.19
84483;BME280;74703;51.284;22.590;2024-02-28T07:09:23;99622.13;;;7.56;86.73
84483;BME280;74703;51.284;22.590;2024-02-28T07:14:26;99628.00;;;7.88;85.96
84483;BME280;74703;51.284;22.590;2024-02-28T07:19:26;99636.94;;;8.04;85.34
84483;BME280;74703;51.284;22.590;2024-02-28T07:24:27;99618.44;;;8.15;84.51
84483;BME280;74703;51.284;22.590;2024-02-28T07:29:27;99643.44;;;8.41;82.92
84483;BME280;74703;51.284;22.590;2024-02-28T07:34:28;99617.59;;;8.39;82.56
84483;BME280;74703;51.284;22.590;2024-02-28T07:39:29;99625.38;;;8.63;81.34
84483;BME280;74703;51.284;22.590;2024-02-28T07:44:32;99639.19;;;8.87;80.62
84483;BME280;74703;51.284;22.590;2024-02-28T07:49:33;99632.72;;;8.97;78.45
84483;BME280;74703;51.284;22.590;2024-02-28T07:54:33;99628.50;;;9.16;77.12
84483;BME280;74703;51.284;22.590;2024-02-28T07:59:39;99620.34;;;9.26;77.30
84483;BME280;74703;51.284;22.590;2024-02-28T08:04:39;99615.22;;;9.46;75.88
84483;BME280;74703;51.284;22.590;2024-02-28T08:09:40;99626.94;;;9.77;75.48
84483;BME280;74703;51.284;22.590;2024-02-28T08:14:40;99633.72;;;10.01;75.30
84483;BME280;74703;51.284;22.590;2024-02-28T08:19:41;99639.97;;;10.18;74.19
84483;BME280;74703;51.284;22.590;2024-02-28T08:24:42;99638.91;;;10.22;72.92
84483;BME280;74703;51.284;22.590;2024-02-28T08:29:44;99641.28;;;10.28;73.29
84483;BME280;74703;51.284;22.590;2024-02-28T08:34:46;99636.00;;;10.50;72.22
84483;BME280;74703;51.284;22.590;2024-02-28T08:39:46;99629.94;;;11.06;70.54
84483;BME280;74703;51.284;22.590;2024-02-28T08:44:47;99630.47;;;11.68;68.98
84483;BME280;74703;51.284;22.590;2024-02-28T08:49:48;99614.53;;;11.91;67.21
84483;BME280;74703;51.284;22.590;2024-02-28T08:54:48;99612.19;;;12.37;65.86
84483;BME280;74703;51.284;22.590;2024-02-28T08:59:50;99616.44;;;12.88;64.21
84483;BME280;74703;51.284;22.590;2024-02-28T09:04:50;99616.53;;;13.34;62.79
84483;BME280;74703;51.284;22.590;2024-02-28T09:09:54;99606.63;;;13.85;61.09
84483;BME280;74703;51.284;22.590;2024-02-28T09:14:55;99593.84;;;13.94;58.45
84483;BME280;74703;51.284;22.590;2024-02-28T09:19:57;99593.78;;;14.10;58.05
84483;BME280;74703;51.284;22.590;2024-02-28T09:25:01;99602.38;;;14.12;57.81
84483;BME280;74703;51.284;22.590;2024-02-28T09:30:05;99592.09;;;14.09;57.89
84483;BME280;74703;51.284;22.590;2024-02-28T09:35:05;99616.06;;;13.87;57.97
84483;BME280;74703;51.284;22.590;2024-02-28T09:40:10;99605.13;;;13.81;59.09
84483;BME280;74703;51.284;22.590;2024-02-28T09:45:11;99615.44;;;14.12;58.79
84483;BME280;74703;51.284;22.590;2024-02-28T09:50:13;99606.59;;;14.29;58.25
84483;BME280;74703;51.284;22.590;2024-02-28T09:55:14;99597.81;;;14.73;57.55
84483;BME280;74703;51.284;22.590;2024-02-28T10:00:19;99608.59;;;15.37;55.43
84483;BME280;74703;51.284;22.590;2024-02-28T10:05:20;99606.44;;;15.02;53.61
84483;BME280;74703;51.284;22.590;2024-02-28T10:10:22;99607.81;;;14.81;54.08
84483;BME280;74703;51.284;22.590;2024-02-28T10:15:25;99616.69;;;14.64;54.70
84483;BME280;74703;51.284;22.590;2024-02-28T10:20:26;99624.66;;;14.62;55.78
84483;BME280;74703;51.284;22.590;2024-02-28T10:25:27;99612.28;;;14.79;55.06
84483;BME280;74703;51.284;22.590;2024-02-28T10:30:29;99630.63;;;14.93;56.58
84483;BME280;74703;51.284;22.590;2024-02-28T10:35:30;99629.56;;;15.10;55.87
84483;BME280;74703;51.284;22.590;2024-02-28T10:40:31;99630.28;;;15.12;53.74
84483;BME280;74703;51.284;22.590;2024-02-28T10:45:31;99624.22;;;14.97;53.95
84483;BME280;74703;51.284;22.590;2024-02-28T10:50:32;99624.91;;;15.01;54.08
84483;BME280;74703;51.284;22.590;2024-02-28T10:55:34;99611.53;;;15.18;55.07
84483;BME280;74703;51.284;22.590;2024-02-28T11:00:36;99603.41;;;15.23;52.47
84483;BME280;74703;51.284;22.590;2024-02-28T11:05:40;99611.78;;;15.28;55.28
84483;BME280;74703;51.284;22.590;2024-02-28T11:10:41;99601.84;;;15.33;53.67
84483;BME280;74703;51.284;22.590;2024-02-28T11:15:46;99604.69;;;15.30;52.99
84483;BME280;74703;51.284;22.590;2024-02-28T11:20:48;99595.69;;;15.07;52.76
84483;BME280;74703;51.284;22.590;2024-02-28T11:25:49;99598.19;;;15.08;53.49
84483;BME280;74703;51.284;22.590;2024-02-28T11:30:49;99599.75;;;14.98;54.48
84483;BME280;74703;51.284;22.590;2024-02-28T11:35:56;99610.25;;;14.84;55.09
84483;BME280;74703;51.284;22.590;2024-02-28T11:40:57;99618.19;;;14.82;55.19
84483;BME280;74703;51.284;22.590;2024-02-28T11:46:01;99609.00;;;14.89;54.77
84483;BME280;74703;51.284;22.590;2024-02-28T11:51:01;99616.56;;;14.94;55.24
84483;BME280;74703;51.284;22.590;2024-02-28T11:56:02;99601.56;;;15.10;54.97
84483;BME280;74703;51.284;22.590;2024-02-28T12:01:03;99580.69;;;15.09;54.16
84483;BME280;74703;51.284;22.590;2024-02-28T12:06:05;99604.41;;;15.34;53.74
84483;BME280;74703;51.284;22.590;2024-02-28T12:11:07;99592.72;;;15.26;53.75
84483;BME280;74703;51.284;22.590;2024-02-28T12:16:08;99600.94;;;15.34;54.33
84483;BME280;74703;51.284;22.590;2024-02-28T12:21:09;99588.47;;;15.38;53.93
84483;BME280;74703;51.284;22.590;2024-02-28T12:26:10;99590.78;;;15.42;53.19
84483;BME280;74703;51.284;22.590;2024-02-28T12:31:10;99586.19;;;15.19;53.07
84483;BME280;74703;51.284;22.590;2024-02-28T12:36:12;99606.19;;;15.07;54.27
84483;BME280;74703;51.284;22.590;2024-02-28T12:41:14;99604.06;;;14.85;55.09
84483;BME280;74703;51.284;22.590;2024-02-28T12:46:16;99608.94;;;14.77;55.13
84483;BME280;74703;51.284;22.590;2024-02-28T12:51:35;99616.06;;;14.75;55.40
84483;BME280;74703;51.284;22.590;2024-02-28T12:56:37;99605.47;;;14.48;55.91
84483;BME280;74703;51.284;22.590;2024-02-28T13:01:38;99604.81;;;14.30;57.03
84483;BME280;74703;51.284;22.590;2024-02-28T13:06:39;99620.69;;;14.27;57.71
84483;BME280;74703;51.284;22.590;2024-02-28T13:11:42;99613.22;;;14.20;57.70
84483;BME280;74703;51.284;22.590;2024-02-28T13:16:44;99615.25;;;14.15;58.65
84483;BME280;74703;51.284;22.590;2024-02-28T13:21:45;99611.56;;;14.19;58.82
84483;BME280;74703;51.284;22.590;2024-02-28T13:26:45;99619.50;;;14.32;56.76
84483;BME280;74703;51.284;22.590;2024-02-28T13:31:46;99623.47;;;14.09;59.03
84483;BME280;74703;51.284;22.590;2024-02-28T13:36:47;99621.78;;;13.94;59.70
84483;BME280;74703;51.284;22.590;2024-02-28T13:41:47;99618.75;;;13.71;60.26
84483;BME280;74703;51.284;22.590;2024-02-28T13:46:52;99618.78;;;13.56;61.23
84483;BME280;74703;51.284;22.590;2024-02-28T13:51:52;99611.03;;;13.54;61.54
84483;BME280;74703;51.284;22.590;2024-02-28T13:56:53;99628.91;;;13.46;62.16
84483;BME280;74703;51.284;22.590;2024-02-28T14:01:53;99621.03;;;13.32;62.85
84483;BME280;74703;51.284;22.590;2024-02-28T14:06:54;99626.25;;;13.32;62.45
84483;BME280;74703;51.284;22.590;2024-02-28T14:11:55;99628.91;;;13.14;63.15
84483;BME280;74703;51.284;22.590;2024-02-28T14:16:55;99640.19;;;13.15;63.63
84483;BME280;74703;51.284;22.590;2024-02-28T14:21:56;99645.75;;;13.09;63.99
84483;BME280;74703;51.284;22.590;2024-02-28T14:26:56;99645.59;;;12.96;63.86
84483;BME280;74703;51.284;22.590;2024-02-28T14:31:57;99635.31;;;12.77;64.46
84483;BME280;74703;51.284;22.590;2024-02-28T14:36:58;99646.06;;;12.71;65.09
84483;BME280;74703;51.284;22.590;2024-02-28T14:41:58;99640.66;;;12.58;65.23
84483;BME280;74703;51.284;22.590;2024-02-28T14:46:59;99644.25;;;12.55;65.65
84483;BME280;74703;51.284;22.590;2024-02-28T14:51:59;99658.34;;;12.53;66.03
84483;BME280;74703;51.284;22.590;2024-02-28T14:57:00;99655.97;;;12.48;66.50
84483;BME280;74703;51.284;22.590;2024-02-28T15:02:01;99665.72;;;12.45;66.25
84483;BME280;74703;51.284;22.590;2024-02-28T15:07:02;99654.38;;;12.28;66.85
84483;BME280;74703;51.284;22.590;2024-02-28T15:12:03;99659.16;;;12.20;67.18
84483;BME280;74703;51.284;22.590;2024-02-28T15:17:04;99674.97;;;12.17;67.37
84483;BME280;74703;51.284;22.590;2024-02-28T15:22:05;99676.94;;;12.12;67.67
84483;BME280;74703;51.284;22.590;2024-02-28T15:27:07;99677.78;;;11.95;68.05
84483;BME280;74703;51.284;22.590;2024-02-28T15:32:07;99687.88;;;11.84;68.27
84483;BME280;74703;51.284;22.590;2024-02-28T15:37:09;99691.47;;;11.81;68.62
84483;BME280;74703;51.284;22.590;2024-02-28T15:42:11;99687.50;;;11.74;68.50
84483;BME280;74703;51.284;22.590;2024-02-28T15:47:13;99695.69;;;11.66;68.83
84483;BME280;74703;51.284;22.590;2024-02-28T15:52:13;99703.78;;;11.60;69.46
84483;BME280;74703;51.284;22.590;2024-02-28T15:57:15;99704.94;;;11.55;69.83
84483;BME280;74703;51.284;22.590;2024-02-28T16:02:16;99713.72;;;11.52;69.88
84483;BME280;74703;51.284;22.590;2024-02-28T16:07:17;99698.69;;;11.40;69.82
84483;BME280;74703;51.284;22.590;2024-02-28T16:12:18;99706.63;;;11.37;70.04
84483;BME280;74703;51.284;22.590;2024-02-28T16:17:19;99712.81;;;11.34;70.11
84483;BME280;74703;51.284;22.590;2024-02-28T16:22:20;99720.78;;;11.31;70.40
84483;BME280;74703;51.284;22.590;2024-02-28T16:27:21;99726.09;;;11.30;70.65
84483;BME280;74703;51.284;22.590;2024-02-28T16:32:21;99728.13;;;11.23;70.35
84483;BME280;74703;51.284;22.590;2024-02-28T16:37:22;99723.50;;;11.11;70.87
84483;BME280;74703;51.284;22.590;2024-02-28T16:42:25;99739.38;;;11.05;71.07
84483;BME280;74703;51.284;22.590;2024-02-28T16:47:26;99728.66;;;10.92;71.63
84483;BME280;74703;51.284;22.590;2024-02-28T16:52:26;99728.09;;;10.85;72.44
84483;BME280;74703;51.284;22.590;2024-02-28T16:57:27;99737.84;;;10.80;72.71
84483;BME280;74703;51.284;22.590;2024-02-28T17:02:28;99733.91;;;10.71;72.90
84483;BME280;74703;51.284;22.590;2024-02-28T17:07:29;99724.03;;;10.59;74.65
84483;BME280;74703;51.284;22.590;2024-02-28T17:12:30;99725.69;;;10.41;78.71
84483;BME280;74703;51.284;22.590;2024-02-28T17:17:31;99735.81;;;10.27;80.62
84483;BME280;74703;51.284;22.590;2024-02-28T17:22:32;99737.69;;;10.01;82.78
84483;BME280;74703;51.284;22.590;2024-02-28T17:27:34;99727.41;;;9.78;84.13
84483;BME280;74703;51.284;22.590;2024-02-28T17:32:34;99738.91;;;9.71;84.90
84483;BME280;74703;51.284;22.590;2024-02-28T17:37:35;99744.59;;;9.58;86.28
84483;BME280;74703;51.284;22.590;2024-02-28T17:42:37;99743.44;;;9.44;86.92
84483;BME280;74703;51.284;22.590;2024-02-28T17:47:37;99742.16;;;9.32;87.42
84483;BME280;74703;51.284;22.590;2024-02-28T17:52:39;99758.75;;;9.28;87.53
84483;BME280;74703;51.284;22.590;2024-02-28T17:57:39;99731.81;;;9.08;87.92
84483;BME280;74703;51.284;22.590;2024-02-28T18:02:40;99741.28;;;9.09;88.31
84483;BME280;74703;51.284;22.590;2024-02-28T18:07:41;99724.63;;;8.91;88.34
84483;BME280;74703;51.284;22.590;2024-02-28T18:12:42;99741.84;;;8.94;88.52
84483;BME280;74703;51.284;22.590;2024-02-28T18:17:43;99734.94;;;8.69;88.63
84483;BME280;74703;51.284;22.590;2024-02-28T18:22:44;99737.44;;;8.73;89.16
84483;BME280;74703;51.284;22.590;2024-02-28T18:27:47;99737.53;;;8.69;89.39
84483;BME280;74703;51.284;22.590;2024-02-28T18:32:48;99744.41;;;8.45;88.44
84483;BME280;74703;51.284;22.590;2024-02-28T18:37:49;99770.25;;;8.48;89.29
84483;BME280;74703;51.284;22.590;2024-02-28T18:42:49;99768.06;;;8.35;90.39
84483;BME280;74703;51.284;22.590;2024-02-28T18:47:50;99748.75;;;8.18;90.73
84483;BME280;74703;51.284;22.590;2024-02-28T18:52:51;99757.34;;;8.20;91.19
84483;BME280;74703;51.284;22.590;2024-02-28T18:57:52;99778.28;;;8.41;91.03
84483;BME280;74703;51.284;22.590;2024-02-28T19:02:54;99769.25;;;8.26;90.53
84483;BME280;74703;51.284;22.590;2024-02-28T19:07:58;99793.97;;;8.36;90.62
84483;BME280;74703;51.284;22.590;2024-02-28T19:12:58;99795.22;;;8.24;89.80
84483;BME280;74703;51.284;22.590;2024-02-28T19:18:01;99783.69;;;8.07;90.21
84483;BME280;74703;51.284;22.590;2024-02-28T19:23:01;99775.66;;;7.88;89.94
84483;BME280;74703;51.284;22.590;2024-02-28T19:28:08;99805.00;;;7.88;90.97
84483;BME280;74703;51.284;22.590;2024-02-28T19:33:09;99797.19;;;7.90;91.25
84483;BME280;74703;51.284;22.590;2024-02-28T19:38:10;99787.09;;;7.80;90.85
84483;BME280;74703;51.284;22.590;2024-02-28T19:43:10;99793.25;;;7.78;91.39
84483;BME280;74703;51.284;22.590;2024-02-28T19:48:11;99788.56;;;7.61;91.63
84483;BME280;74703;51.284;22.590;2024-02-28T19:53:11;99819.09;;;7.79;91.92
84483;BME280;74703;51.284;22.590;2024-02-28T19:58:12;99822.78;;;7.71;92.14
84483;BME280;74703;51.284;22.590;2024-02-28T20:03:12;99795.44;;;7.62;93.21
84483;BME280;74703;51.284;22.590;2024-02-28T20:08:13;99833.72;;;7.80;92.67
84483;BME280;74703;51.284;22.590;2024-02-28T20:13:14;99823.78;;;7.67;92.19
84483;BME280;74703;51.284;22.590;2024-02-28T20:18:15;99826.28;;;7.70;92.33
84483;BME280;74703;51.284;22.590;2024-02-28T20:23:16;99846.72;;;8.07;93.52
84483;BME280;74703;51.284;22.590;2024-02-28T20:28:17;99835.91;;;8.49;94.86
84483;BME280;74703;51.284;22.590;2024-02-28T20:33:17;99828.97;;;8.76;95.61
84483;BME280;74703;51.284;22.590;2024-02-28T20:38:19;99829.34;;;8.90;95.50
84483;BME280;74703;51.284;22.590;2024-02-28T20:43:23;99834.72;;;9.09;95.46
84483;BME280;74703;51.284;22.590;2024-02-28T20:48:24;99814.47;;;9.19;94.76
84483;BME280;74703;51.284;22.590;2024-02-28T20:53:24;99827.19;;;9.27;94.55
84483;BME280;74703;51.284;22.590;2024-02-28T20:58:26;99854.38;;;9.63;94.91
84483;BME280;74703;51.284;22.590;2024-02-28T21:03:27;99853.44;;;9.66;95.28
84483;BME280;74703;51.284;22.590;2024-02-28T21:08:28;99843.94;;;9.65;95.35
84483;BME280;74703;51.284;22.590;2024-02-28T21:13:28;99873.06;;;9.73;94.56
84483;BME280;74703;51.284;22.590;2024-02-28T21:18:29;99863.22;;;9.59;93.72
84483;BME280;74703;51.284;22.590;2024-02-28T21:23:29;99880.13;;;9.46;94.22
84483;BME280;74703;51.284;22.590;2024-02-28T21:28:30;99876.75;;;9.68;93.30
84483;BME280;74703;51.284;22.590;2024-02-28T21:33:32;99887.94;;;9.70;92.97
84483;BME280;74703;51.284;22.590;2024-02-28T21:38:33;99892.13;;;9.50;93.96
84483;BME280;74703;51.284;22.590;2024-02-28T21:43:35;99881.03;;;9.45;92.91
84483;BME280;74703;51.284;22.590;2024-02-28T21:48:37;99876.53;;;9.50;90.29
84483;BME280;74703;51.284;22.590;2024-02-28T21:53:38;99901.63;;;9.50;90.29
84483;BME280;74703;51.284;22.590;2024-02-28T21:58:38;99904.16;;;9.28;90.74
84483;BME280;74703;51.284;22.590;2024-02-28T22:03:39;99905.75;;;9.32;90.82
84483;BME280;74703;51.284;22.590;2024-02-28T22:08:39;99916.34;;;9.26;90.92
84483;BME280;74703;51.284;22.590;2024-02-28T22:13:40;99900.56;;;9.07;91.41
84483;BME280;74703;51.284;22.590;2024-02-28T22:18:40;99922.28;;;9.04;91.34
84483;BME280;74703;51.284;22.590;2024-02-28T22:23:41;99917.56;;;8.90;91.78
84483;BME280;74703;51.284;22.590;2024-02-28T22:28:43;99924.44;;;8.91;92.08
84483;BME280;74703;51.284;22.590;2024-02-28T22:33:44;99911.28;;;8.71;92.80
84483;BME280;74703;51.284;22.590;2024-02-28T22:38:44;99909.78;;;8.64;93.13
84483;BME280;74703;51.284;22.590;2024-02-28T22:43:45;99917.44;;;8.68;93.01
84483;BME280;74703;51.284;22.590;2024-02-28T22:48:46;99936.66;;;8.61;92.81
84483;BME280;74703;51.284;22.590;2024-02-28T22:53:47;99930.19;;;8.48;93.33
84483;BME280;74703;51.284;22.590;2024-02-28T22:58:48;99911.72;;;8.29;93.72
84483;BME280;74703;51.284;22.590;2024-02-28T23:03:49;99922.03;;;8.31;93.43
84483;BME280;74703;51.284;22.590;2024-02-28T23:08:49;99922.69;;;8.39;93.68
84483;BME280;74703;51.284;22.590;2024-02-28T23:13:51;99942.34;;;8.46;93.66
84483;BME280;74703;51.284;22.590;2024-02-28T23:18:51;99935.06;;;8.29;94.59
84483;BME280;74703;51.284;22.590;2024-02-28T23:23:52;99959.28;;;8.28;95.16
84483;BME280;74703;51.284;22.590;2024-02-28T23:28:52;99951.47;;;8.30;95.25
84483;BME280;74703;51.284;22.590;2024-02-28T23:33:53;99948.28;;;8.20;95.40
84483;BME280;74703;51.284;22.590;2024-02-28T23:38:53;99953.34;;;8.24;95.27
84483;BME280;74703;51.284;22.590;2024-02-28T23:43:54;99948.63;;;8.08;95.43
84483;BME280;74703;51.284;22.590;2024-02-28T23:48:54;99972.13;;;8.33;95.21
84483;BME280;74703;51.284;22.590;2024-02-28T23:53:55;99962.03;;;8.23;95.53
84483;BME280;74703;51.284;22.590;2024-02-28T23:58:56;99960.31;;;8.22;94.67
